• Join FlightAware (Why Join?)
  • Login
  • US Flag 
11:49AM EDT


 

Airport Tracker/Info


-or-


 

Live Flight TrackerFlight Track Log ✈ AAL832 ✈ 03-May-2013 ✈ KLAX - KORD

Flight Track Log - Related Links

Times and Time Zones

All times are in EDT time to prevent confusion due to time zone crossing. See the AAL832 flight status page for this flight to view local times or setup timezone preferences in your user account.

Time Position Orientation Groundspeed Altitude Reporting Facility
EDT Latitude Longitude Course Direction KTS MPH feet Rate Location/Type
02:17PM 33.9333 -118.4500 90° East 187 215 1,900  Level Southern California TRACON
02:18PM 33.9172 -118.4836 240° Southwest 222 255 3,000 2,520 Climbing Los Angeles Center
02:19PM 33.8292 -118.1458 140° Southeast  Level FlightAware Approximate
02:19PM 33.8742 -118.5447 230° Southwest 242 278 5,700  Level Los Angeles Center
02:20PM 33.7667 -118.0275 90° East  Level FlightAware Approximate
02:20PM 33.8078 -118.5472 182° South 262 302 8,200  Level Los Angeles Center
02:21PM 33.7667 -117.8817 90° East  Level FlightAware Approximate
02:21PM 33.7125 -118.5392 176° South 291 335 11,100  Level Los Angeles Center
02:22PM 33.7472 -117.7389 97° East  Level FlightAware Approximate
02:22PM 33.6328 -118.4944 155° Southeast 337 388 13,300  Level Los Angeles Center
02:23PM 33.7333 -117.5941 90° East  Level FlightAware Approximate
02:23PM 33.6164 -118.3819 100° East 351 404 15,300  Level Los Angeles Center
02:24PM 33.6208 -118.2514 88° East 394 453 16,700 1,800 Climbing Los Angeles Center
02:25PM 33.6197 -118.0806 90° East 432 497 19,100 2,100 Climbing Los Angeles Center
02:26PM 33.6206 -117.9294 90° East 453 521 21,100 1,800 Climbing Los Angeles Center
02:27PM 33.6122 -117.7750 94° East 465 535 22,900 1,680 Climbing Los Angeles Center
02:28PM 33.6014 -117.6139 95° East 483 556 24,600 1,500 Climbing Los Angeles Center
02:29PM 33.5914 -117.4492 94° East 496 571 26,100 1,560 Climbing Los Angeles Center
02:30PM 33.5800 -117.2458 94° East 511 588 27,900 1,740 Climbing Los Angeles Center
02:31PM 33.5844 -117.0878 88° East 508 585 29,700 1,500 Climbing Los Angeles Center
02:32PM 33.5958 -116.9089 86° East 509 586 31,000 600 Climbing Los Angeles Center
02:33PM 33.6033 -116.7492 87° East 507 583 31,000 720 Level Los Angeles Center
02:34PM 33.6117 -116.5439 87° East 511 588 32,500 1,440 Climbing Los Angeles Center
02:35PM 33.6364 -116.3789 80° East 506 582 34,000 1,380 Climbing Los Angeles Center
02:37PM 33.6836 -116.2225 70° East 500 575 35,400 900 Climbing Los Angeles Center
02:38PM 33.7308 -116.0619 70° East 507 583 35,900 720 Climbing Los Angeles Center
02:39PM 33.7792 -115.8983 70° East 517 595 36,900 480 Climbing Los Angeles Center
02:40PM 33.8181 -115.7686 70° East 516 594 37,000  Climbing Los Angeles Center
02:41PM 33.8850 -115.5392 71° East 519 597 37,000  Level Los Angeles Center
02:42PM 33.9328 -115.3769 70° East 515 593 37,000  Level Los Angeles Center
02:43PM 33.9797 -115.2119 71° East 519 597 37,000  Level Los Angeles Center
02:44PM 34.0269 -115.0503 71° East 515 593 37,000  Level Los Angeles Center
02:45PM 34.0842 -114.8561 70° East 512 589 37,000  Level Los Angeles Center
02:46PM 34.1303 -114.6944 71° East 511 588 37,000  Level Los Angeles Center
02:47PM 34.1903 -114.5014 69° East 512 589 37,000  Level Los Angeles Center
02:48PM 34.2353 -114.3400 71° East 512 589 37,000  Level Los Angeles Center
02:49PM 34.2650 -114.2339 71° East 507 583 37,000  Level Albuquerque Center
02:50PM 34.3106 -114.0747 71° East 505 581 37,000  Level Albuquerque Center
02:51PM 34.3564 -113.9156 71° East 503 579 37,000  Level Albuquerque Center
02:52PM 34.4003 -113.7583 71° East 500 575 37,000  Level Albuquerque Center
02:53PM 34.4506 -113.5847 71° East 504 580 37,000  Level Albuquerque Center
02:54PM 34.4933 -113.4258 72° East 501 577 37,000  Level Albuquerque Center
02:55PM 34.5364 -113.2675 72° East 501 577 37,000  Level Albuquerque Center
02:56PM 34.5889 -113.0772 71° East 500 575 37,000  Level Albuquerque Center
02:57PM 34.6322 -112.9194 72° East 500 575 37,000  Level Albuquerque Center
02:58PM 34.6744 -112.7608 72° East 500 575 37,000  Level Albuquerque Center
02:59PM 34.7161 -112.6028 72° East 498 573 37,000  Level Albuquerque Center
03:00PM 34.7578 -112.4453 72° East 497 572 37,000  Level Albuquerque Center
03:01PM 34.8064 -112.2556 73° East 495 570 37,000  Level Albuquerque Center
03:02PM 34.8469 -112.0989 72° East 492 566 37,000  Level Albuquerque Center
03:03PM 34.8881 -111.9433 72° East 489 563 37,000  Level Albuquerque Center
03:04PM 34.9272 -111.7881 73° East 484 557 37,000  Level Albuquerque Center
03:05PM 34.9678 -111.6333 72° East 484 557 37,000  Level Albuquerque Center
03:06PM 35.0156 -111.4467 73° East 484 557 37,000  Level Albuquerque Center
03:07PM 35.0550 -111.2903 73° East 486 559 37,000  Level Albuquerque Center
03:08PM 35.0953 -111.1344 72° East 485 558 37,000  Level Albuquerque Center
03:09PM 35.1367 -110.9728 74° East 481 554 37,000  Level Albuquerque Center
03:10PM 35.1327 -110.9714 74° East  Level FlightAware Approximate
03:10PM 35.1814 -110.7994 72° East 479 551 37,000  Level Albuquerque Center
03:11PM 35.2161 -110.6503 74° East 477 549 37,000  Level Albuquerque Center
03:13PM 35.2594 -110.4767 73° East 478 550 37,000  Level Albuquerque Center
03:14PM 35.2978 -110.3300 72° East 475 547 37,000  Level Albuquerque Center
03:15PM 35.3339 -110.1817 73° East 475 547 37,000  Level Albuquerque Center
03:16PM 35.3764 -110.0086 73° East 476 548 37,000  Level Albuquerque Center
03:17PM 35.4108 -109.8594 74° East 476 548 37,000  Level Albuquerque Center
03:18PM 35.4528 -109.6881 73° East 472 543 37,000  Level Albuquerque Center
03:19PM 35.4883 -109.5389 74° East 475 547 37,000  Level Albuquerque Center
03:20PM 35.5275 -109.3658 74° East 474 545 37,000  Level Albuquerque Center
03:21PM 35.5614 -109.2181 74° East 472 543 37,000  Level Albuquerque Center
03:22PM 35.6014 -109.0472 74° East 469 540 37,000  Level Albuquerque Center
03:23PM 35.6347 -108.9019 74° East 466 536 37,000  Level Albuquerque Center
03:24PM 35.6744 -108.7317 74° East 466 536 37,000  Level Albuquerque Center
03:25PM 35.7078 -108.5858 74° East 467 537 37,000  Level Albuquerque Center
03:26PM 35.7469 -108.4153 74° East 467 537 37,000  Level Albuquerque Center
03:27PM 35.7797 -108.2694 74° East 465 535 37,000  Level Albuquerque Center
03:28PM 35.8178 -108.0989 75° East 464 534 37,000  Level Albuquerque Center
03:29PM 35.8506 -107.9517 75° East 466 536 37,000  Level Albuquerque Center
03:30PM 35.8839 -107.8050 74° East 465 535 37,000  Level Albuquerque Center
03:31PM 35.9217 -107.6347 75° East 462 532 37,000  Level Albuquerque Center
03:32PM 35.9542 -107.4864 75° East 465 535 37,000  Level Albuquerque Center
03:33PM 35.9914 -107.3161 75° East 463 533 37,000  Level Albuquerque Center
03:34PM 36.0222 -107.1750 75° East 464 534 37,000  Level Albuquerque Center
03:35PM 36.0561 -107.0208 75° East 464 534 37,000  Level Albuquerque Center
03:36PM 36.0894 -106.8653 75° East 466 536 37,000  Level Albuquerque Center
03:37PM 36.1289 -106.6797 75° East 464 534 37,000  Level Albuquerque Center
03:38PM 36.1619 -106.5233 75° East 467 537 37,000  Level Albuquerque Center
03:39PM 36.1972 -106.3539 75° East 467 537 37,000  Level Albuquerque Center
03:40PM 36.2294 -106.2061 75° East 466 536 37,000  Level Albuquerque Center
03:41PM 36.2586 -106.0564 76° East 467 537 37,000  Level Albuquerque Center
03:42PM 36.2903 -105.9017 76° East 464 534 37,000  Level Albuquerque Center
03:43PM 36.3200 -105.7414 77° East 473 544 37,000  Level Albuquerque Center
03:44PM 36.3525 -105.5850 75° East 470 541 37,000  Level Albuquerque Center
03:45PM 36.3894 -105.3928 77° East 466 536 37,000  Level Albuquerque Center
03:47PM 36.4206 -105.2344 76° East 467 537 37,000  Level Albuquerque Center
03:48PM 36.4511 -105.0778 76° East 464 534 37,000  Level Albuquerque Center
03:49PM 36.4817 -104.9200 76° East 464 534 37,000  Level Albuquerque Center
03:50PM 36.5111 -104.7614 77° East 466 536 37,000  Level Albuquerque Center
03:51PM 36.5397 -104.6047 77° East 462 532 37,000  Level Albuquerque Center
03:52PM 36.5786 -104.4497 73° East 464 534 37,000  Level Albuquerque Center
03:53PM 36.6331 -104.3094 64° Northeast 452 520 37,000  Level Albuquerque Center
03:54PM 36.6933 -104.1536 64° Northeast 444 511 37,000  Level Albuquerque Center
03:55PM 36.7442 -104.0211 64° Northeast 444 511 37,000  Level Albuquerque Center
03:56PM 36.8036 -103.8653 64° Northeast 445 512 37,000  Level Albuquerque Center
03:57PM 36.8533 -103.7342 65° Northeast 444 511 37,000  Level Albuquerque Center
03:58PM 36.9117 -103.5772 65° Northeast 446 513 37,000  Level Albuquerque Center
03:59PM 36.9614 -103.4425 65° Northeast 447 514 37,000  Level Albuquerque Center
04:00PM 37.0189 -103.2878 65° Northeast 444 511 37,000  Level Albuquerque Center
04:01PM 37.0678 -103.1533 65° Northeast 445 512 37,000  Level Albuquerque Center
04:02PM 37.1169 -103.0178 66° East 447 514 37,000  Level Albuquerque Center
04:03PM 37.1750 -102.8586 65° Northeast 449 517 37,000  Level Albuquerque Center
04:04PM 37.2242 -102.7219 66° East 449 517 37,000  Level Albuquerque Center
04:05PM 37.2828 -102.5639 65° Northeast 449 517 37,000  Level Albuquerque Center
04:06PM 37.3317 -102.4278 66° East 447 514 37,000  Level Albuquerque Center
04:07PM 37.3883 -102.2683 66° East 447 514 37,000  Level Albuquerque Center
04:08PM 37.4392 -102.1236 66° East 445 512 37,000  Level Albuquerque Center
04:09PM 37.4872 -101.9886 66° East 443 510 37,000  Level Albuquerque Center
04:10PM 37.5431 -101.8303 66° East 443 510 37,000  Level Albuquerque Center
04:11PM 37.5978 -101.6686 67° East 447 514 37,000  Level Kansas City Center
04:12PM 37.6472 -101.5297 66° East 451 519 37,000  Level Kansas City Center
04:13PM 37.7047 -101.3642 66° East 458 527 37,000  Level Kansas City Center
04:14PM 37.7553 -101.2233 66° East 459 528 37,000  Level Kansas City Center
04:15PM 37.8142 -101.0550 66° East 462 532 37,000  Level Kansas City Center
04:17PM 37.8644 -100.9086 66° East 465 535 37,000  Level Kansas City Center
04:18PM 37.9156 -100.7611 66° East 470 541 37,000  Level Kansas City Center
04:19PM 37.9733 -100.5906 67° East 470 541 37,000  Level Kansas City Center
04:20PM 38.0214 -100.4458 67° East 467 537 37,000  Level Kansas City Center
04:21PM 38.0781 -100.2747 67° East 467 537 37,000  Level Kansas City Center
04:22PM 38.1258 -100.1275 68° East 470 541 37,000  Level Kansas City Center
04:23PM 38.1833 -99.9581 67° East 469 540 37,000  Level Kansas City Center
04:24PM 38.2317 -99.8111 67° East 469 540 37,000  Level Kansas City Center
04:25PM 38.2864 -99.6397 68° East 468 539 37,000  Level Kansas City Center
04:26PM 38.3353 -99.4936 67° East 467 537 37,000  Level Kansas City Center
04:27PM 38.3850 -99.3406 67° East 467 537 37,000  Level Kansas City Center
04:28PM 38.4331 -99.1889 68° East 464 534 37,000  Level Kansas City Center
04:29PM 38.4825 -99.0364 67° East 463 533 37,000  Level Kansas City Center
04:30PM 38.5311 -98.8847 68° East 462 532 37,000  Level Kansas City Center
04:31PM 38.5922 -98.6981 67° East 471 542 37,000  Level Kansas City Center
04:32PM 38.6381 -98.5456 69° East 460 529 37,000  Level Kansas City Center
04:33PM 38.6869 -98.3906 68° East 467 537 37,000  Level Kansas City Center
04:34PM 38.7356 -98.2353 68° East 468 539 37,000  Level Kansas City Center
04:35PM 38.7842 -98.0794 68° East 469 540 37,000  Level Kansas City Center
04:36PM 38.8333 -97.9206 68° East 476 548 37,000 600 Level Kansas City Center
04:37PM 38.8850 -97.7497 69° East 469 540 38,300 960 Climbing Kansas City Center
04:38PM 38.9383 -97.5764 68° East 466 536 39,000 300 Climbing Kansas City Center
04:39PM 38.9806 -97.4211 71° East 478 550 39,000  Level Kansas City Center
04:40PM 39.0267 -97.2706 68° East 474 545 39,000  Level Kansas City Center
04:41PM 39.0775 -97.0933 70° East 472 543 39,000  Level Kansas City Center
04:42PM 39.1219 -96.9419 69° East 472 543 39,000  Level Kansas City Center
04:43PM 39.1728 -96.7656 70° East 471 542 39,000  Level Kansas City Center
04:44PM 39.2147 -96.6142 70° East 469 540 39,000  Level Kansas City Center
04:45PM 39.2664 -96.4361 69° East 468 539 39,000  Level Kansas City Center
04:47PM 39.3117 -96.2772 70° East 472 543 39,000  Level Kansas City Center
04:48PM 39.3569 -96.1103 71° East 467 537 39,000  Level Kansas City Center
04:49PM 39.3994 -95.9583 70° East 468 539 39,000  Level Kansas City Center
04:50PM 39.4497 -95.7797 70° East 472 543 39,000  Level Kansas City Center
04:51PM 39.4919 -95.6256 70° East 471 542 39,000  Level Kansas City Center
04:52PM 39.5386 -95.4511 71° East 468 539 39,000  Level Kansas City Center
04:53PM 39.5817 -95.2936 70° East 466 536 39,000  Level Kansas City Center
04:54PM 39.6231 -95.1400 71° East 468 539 39,000  Level Kansas City Center
04:55PM 39.6714 -94.9625 70° East 464 534 39,000  Level Kansas City Center
04:56PM 39.7117 -94.8086 71° East 468 539 39,000  Level Kansas City Center
04:57PM 39.7519 -94.6569 71° East 464 534 39,000  Level Kansas City Center
04:58PM 39.7989 -94.4781 71° East 467 537 39,000  Level Kansas City Center
04:59PM 39.8381 -94.3272 71° East 461 531 39,000  Level Kansas City Center
05:00PM 39.8853 -94.1494 71° East 465 535 39,000  Level Kansas City Center
05:01PM 39.9256 -93.9792 73° East 471 542 39,000  Level Kansas City Center
05:02PM 39.9669 -93.8219 71° East 465 535 39,000  Level Kansas City Center
05:03PM 40.0069 -93.6622 72° East 466 536 39,000  Level Kansas City Center
05:04PM 40.0475 -93.5036 71° East 464 534 39,000  Level Kansas City Center
05:05PM 40.0867 -93.3447 72° East 464 534 39,000 -60 Level Kansas City Center
05:06PM 40.1361 -93.1539 71° East 464 534 38,900 -540 Descending Kansas City Center
05:07PM 40.1733 -93.0003 72° East 460 529 38,000 -960 Descending Kansas City Center
05:08PM 40.2178 -92.8225 72° East 459 528 37,000 -540 Descending Kansas City Center
05:09PM 40.2539 -92.6756 72° East 448 516 37,000  Level Kansas City Center
05:10PM 40.2961 -92.5078 72° East 439 505 37,000 -120 Level Kansas City Center
05:11PM 40.3289 -92.3675 73° East 440 506 36,800 -840 Descending Kansas City Center
05:12PM 40.3644 -92.2150 73° East 441 507 35,300 -1,260 Descending Kansas City Center
05:13PM 40.4014 -92.0631 72° East 440 506 34,300 -840 Descending Kansas City Center
05:14PM 40.4436 -91.8792 73° East 441 507 33,600 -660 Descending Kansas City Center
05:15PM 40.4797 -91.7278 73° East 438 504 33,000 -300 Descending Kansas City Center
05:16PM 40.5147 -91.5764 73° East 438 504 33,000  Level Chicago Center
05:17PM 40.5506 -91.4211 73° East 443 510 33,000  Level Chicago Center
05:18PM 40.6000 -91.2703 67° East 449 517 33,000  Level Chicago Center
05:20PM 40.6525 -91.1186 65° Northeast 454 522 33,000 -300 Level Chicago Center
05:21PM 40.7044 -90.9656 66° East 456 525 32,500 -840 Descending Chicago Center
05:22PM 40.7678 -90.7789 66° East 462 532 31,300 -1,080 Descending Chicago Center
05:23PM 40.8200 -90.6214 66° East 467 537 30,300 -1,080 Descending Chicago Center
05:24PM 40.8722 -90.4625 66° East 468 539 29,100 -1,200 Descending Chicago Center
05:25PM 40.9272 -90.2989 66° East 479 551 27,900 -1,140 Descending Chicago Center
05:26PM 40.9783 -90.1442 66° East 485 558 26,800 -1,140 Descending Chicago Center
05:27PM 41.0350 -89.9731 66° East 472 543 25,600 -1,080 Descending Chicago Center
05:28PM 41.0872 -89.8150 66° East 465 535 24,600 -780 Descending Chicago Center
05:29PM 41.1389 -89.6578 66° East 463 533 24,000 -1,260 Descending Chicago Center
05:30PM 41.1928 -89.5089 64° Northeast 451 519 22,000 -2,040 Descending Chicago Center
05:31PM 41.2628 -89.3400 61° Northeast 436 502 19,900 -1,860 Descending Chicago Center
05:32PM 41.3142 -89.2114 62° Northeast 402 463 18,200 -2,220 Descending Chicago Center
05:33PM 41.3650 -89.0822 62° Northeast 379 436 15,400 -2,280 Descending Chicago Center
05:34PM 41.4119 -88.9631 62° Northeast 367 422 13,600 -1,980 Descending Chicago Center
05:35PM 41.4564 -88.8528 62° Northeast 344 396 11,400 -1,260 Descending Chicago Center
05:36PM 41.4994 -88.7425 62° Northeast 338 389 11,000 -180 Descending Chicago Center
05:37PM 41.5361 -88.6492 62° Northeast 289 333 11,100  Climbing Chicago Center
05:38PM 41.5767 -88.5531 61° Northeast 253 291 11,100 -720 Level Chicago Center
05:39PM 41.6236 -88.4814 49° Northeast 256 295 9,700 -1,260 Descending Chicago Center
05:40PM 41.6689 -88.4100 50° Northeast 254 292 8,500 -840 Descending Chicago Center
05:41PM 41.7133 -88.3417 49° Northeast 246 283 8,000 -300 Descending Chicago Center
05:42PM 41.7789 -88.3331 North 235 270 8,000  Level Chicago Center
05:43PM 41.8436 -88.3267 North 233 268 8,000  Level Chicago Center
05:44PM 41.8928 -88.3800 321° Northwest 234 269 8,000  Level Chicago Center
05:45PM 41.8906 -88.4569 268° West 212 244 8,000 -300 Level Chicago Center
05:46PM 41.8869 -88.5344 266° West 210 242 7,500 -900 Descending Chicago Center
05:47PM 41.9331 -88.5717 329° Northwest 222 255 6,200 -780 Descending Chicago Center
05:48PM 41.9669 -88.5136 52° Northeast 204 235 5,900 -480 Descending Chicago Center
05:49PM 41.9669 -88.4450 90° East 188 216 5,300 -480 Descending Chicago Center
05:51PM 41.9669 -88.3644 90° East 184 212 5,000 -180 Descending Chicago Center
05:52PM 41.9667 -88.3003 90° East 178 205 5,000  Level Chicago Center
05:53PM 41.9672 -88.2325 89° East 180 207 5,000 -480 Level Chicago Center
05:54PM 41.9672 -88.1650 90° East 181 208 4,100 -900 Descending Chicago Center